createdAt,value
2023-04-14T03:00:58.283Z,4.00
2023-04-14T03:03:26.675Z,4.00
2023-04-14T03:05:54.598Z,4.00
2023-04-14T03:08:23.676Z,4.00
2023-04-14T03:10:53.066Z,4.00
2023-04-14T03:13:23.926Z,3.90
2023-04-14T03:15:52.902Z,4.00
2023-04-14T03:18:21.835Z,4.00
2023-04-14T03:20:51.875Z,4.00
2023-04-14T03:23:21.935Z,4.10
2023-04-14T03:25:49.650Z,4.20
2023-04-14T03:28:22.919Z,4.20
2023-04-14T03:30:52.658Z,4.10
2023-04-14T03:33:27.453Z,4.10
2023-04-14T03:35:58.221Z,4.10
2023-04-14T03:38:29.359Z,4.00
2023-04-14T03:41:03.371Z,4.00
2023-04-14T03:43:33.401Z,4.00
2023-04-14T03:46:00.817Z,4.00
2023-04-14T03:48:34.103Z,4.00
2023-04-14T03:51:04.120Z,3.90
2023-04-14T03:53:34.861Z,4.00
2023-04-14T03:56:03.287Z,4.10
2023-04-14T03:58:32.828Z,4.10
2023-04-14T04:01:01.961Z,4.00
2023-04-14T04:03:30.193Z,3.90
2023-04-14T04:05:57.905Z,4.00
2023-04-14T04:08:25.794Z,4.00
2023-04-14T04:10:54.892Z,4.10
2023-04-14T04:13:23.899Z,4.00
2023-04-14T04:15:52.824Z,4.10
2023-04-14T04:18:22.708Z,4.10
2023-04-14T04:20:50.872Z,4.20
2023-04-14T04:23:20.386Z,4.20
2023-04-14T04:25:48.435Z,3.90
2023-04-14T04:28:16.644Z,3.90
2023-04-14T04:30:46.440Z,3.70
2023-04-14T04:33:14.082Z,3.70
2023-04-14T04:35:42.530Z,3.80
2023-04-14T04:38:11.514Z,3.80
2023-04-14T04:40:39.106Z,3.70
2023-04-14T04:43:06.445Z,3.80
2023-04-14T04:45:52.781Z,3.80
2023-04-14T04:48:20.019Z,3.80
2023-04-14T04:50:47.237Z,3.80
2023-04-14T04:53:14.441Z,3.90
2023-04-14T04:55:42.419Z,4.20
2023-04-14T04:58:10.018Z,4.20
2023-04-14T05:00:37.292Z,4.20
2023-04-14T05:03:04.713Z,4.30
2023-04-14T05:05:36.403Z,4.30
2023-04-14T05:08:03.926Z,4.30
2023-04-14T05:10:31.181Z,4.30
2023-04-14T05:12:58.349Z,4.10
2023-04-14T05:15:25.704Z,4.20
2023-04-14T05:17:53.018Z,4.20
2023-04-14T05:20:20.580Z,4.20
2023-04-14T05:22:47.891Z,4.20
2023-04-14T05:25:15.465Z,4.10
2023-04-14T05:27:42.736Z,4.10
2023-04-14T05:30:10.876Z,4.10
2023-04-14T05:32:38.186Z,4.20
2023-04-14T05:35:05.630Z,4.30
2023-04-14T05:37:34.495Z,4.20
2023-04-14T05:40:04.073Z,4.30
2023-04-14T05:42:31.600Z,4.40
2023-04-14T05:44:58.968Z,4.50
2023-04-14T05:47:26.204Z,4.50
2023-04-14T05:49:53.392Z,4.60
2023-04-14T05:52:20.643Z,4.70
2023-04-14T05:54:47.838Z,4.70
2023-04-14T05:57:15.077Z,4.70
2023-04-14T05:59:42.487Z,4.80
2023-04-14T06:02:09.743Z,4.90
2023-04-14T06:04:37.248Z,4.80
2023-04-14T06:07:04.636Z,5.00
2023-04-14T06:09:32.134Z,5.10
2023-04-14T06:11:59.407Z,5.20
2023-04-14T06:14:26.699Z,5.30
2023-04-14T06:16:55.101Z,5.20
2023-04-14T06:19:22.748Z,5.30
2023-04-14T06:21:50.120Z,5.50
2023-04-14T06:24:17.321Z,5.50
2023-04-14T06:26:44.512Z,5.40
2023-04-14T06:29:12.014Z,5.40
2023-04-14T06:31:39.277Z,5.50
2023-04-14T06:34:06.623Z,5.60
2023-04-14T06:36:33.881Z,5.70
2023-04-14T06:39:01.702Z,5.70
2023-04-14T06:41:29.070Z,5.50
2023-04-14T06:43:56.456Z,5.50
2023-04-14T06:46:23.770Z,5.50
2023-04-14T06:48:51.004Z,5.40
2023-04-14T06:51:18.552Z,5.40
2023-04-14T06:53:45.794Z,5.20
2023-04-14T06:56:13.133Z,4.90
2023-04-14T06:58:40.459Z,4.90
2023-04-14T07:01:07.781Z,4.90
2023-04-14T07:03:35.076Z,4.90
2023-04-14T07:06:04.018Z,4.90
2023-04-14T07:08:32.900Z,4.90
2023-04-14T07:11:01.816Z,4.90
2023-04-14T07:13:29.452Z,5.20
2023-04-14T07:15:56.942Z,5.40
2023-04-14T07:18:24.304Z,5.30
2023-04-14T07:20:52.667Z,5.20
2023-04-14T07:23:20.891Z,5.20
2023-04-14T07:25:52.980Z,5.30
2023-04-14T07:28:21.397Z,5.40
2023-04-14T07:30:49.564Z,5.40
2023-04-14T07:33:22.021Z,5.20
2023-04-14T07:36:01.179Z,5.20
2023-04-14T07:38:29.990Z,5.20
2023-04-14T07:40:57.599Z,5.30
2023-04-14T07:43:24.887Z,5.40
2023-04-14T07:45:53.154Z,5.40
2023-04-14T07:48:21.563Z,5.40
2023-04-14T07:50:52.062Z,5.50
2023-04-14T07:53:19.303Z,5.40
2023-04-14T07:55:46.636Z,5.50
2023-04-14T07:58:15.800Z,5.60
2023-04-14T08:00:43.530Z,5.80
2023-04-14T08:03:11.412Z,6.00
2023-04-14T08:05:38.767Z,6.00
2023-04-14T08:08:06.231Z,6.00
2023-04-14T08:10:33.467Z,6.20
2023-04-14T08:13:03.050Z,6.40
2023-04-14T08:15:32.166Z,7.10
2023-04-14T08:17:59.596Z,7.10
2023-04-14T08:20:26.982Z,7.10
2023-04-14T08:22:56.167Z,6.90
2023-04-14T08:25:23.483Z,7.00
2023-04-14T08:27:51.070Z,7.00
2023-04-14T08:30:18.289Z,7.10
2023-04-14T08:32:45.612Z,7.00
2023-04-14T08:35:37.798Z,7.10
2023-04-14T08:38:01.256Z,7.20
2023-04-14T08:40:38.344Z,7.20
2023-04-14T08:43:06.573Z,7.00
2023-04-14T08:45:34.653Z,6.60
2023-04-14T08:48:05.845Z,6.60
2023-04-14T08:50:37.466Z,6.70
2023-04-14T08:53:08.733Z,6.70
2023-04-14T08:55:41.270Z,6.90
2023-04-14T08:58:10.754Z,7.20
2023-04-14T09:00:40.160Z,7.20
2023-04-14T09:03:09.330Z,7.00
2023-04-14T09:05:38.029Z,7.20
2023-04-14T09:08:05.597Z,7.20
2023-04-14T09:10:35.696Z,7.40
2023-04-14T09:13:04.450Z,7.30
2023-04-14T09:15:31.661Z,7.80
2023-04-14T09:17:59.086Z,7.80
2023-04-14T09:20:39.707Z,7.90
2023-04-14T09:23:10.311Z,7.70
2023-04-14T09:25:41.715Z,7.60
2023-04-14T09:28:09.073Z,7.60
2023-04-14T09:30:36.452Z,7.30
2023-04-14T09:33:08.169Z,7.30
2023-04-14T09:35:50.382Z,7.20
2023-04-14T09:38:33.617Z,7.30
2023-04-14T09:41:01.869Z,7.30
2023-04-14T09:43:29.666Z,7.20
2023-04-14T09:46:03.834Z,7.80
2023-04-14T09:48:31.309Z,7.90
2023-04-14T09:50:59.885Z,7.90
2023-04-14T09:53:32.639Z,7.90
2023-04-14T09:56:02.763Z,8.10
2023-04-14T09:58:32.666Z,8.10
2023-04-14T10:00:59.962Z,8.20
2023-04-14T10:03:41.102Z,8.00
2023-04-14T10:06:18.989Z,8.30
2023-04-14T10:08:51.535Z,8.30
2023-04-14T10:11:29.342Z,8.30
2023-04-14T10:14:01.825Z,8.20
2023-04-14T10:16:29.750Z,8.10
2023-04-14T10:19:00.757Z,7.90
2023-04-14T10:21:28.678Z,7.90
2023-04-14T10:23:57.454Z,7.90
2023-04-14T10:26:24.977Z,8.40
2023-04-14T10:28:54.478Z,8.60
2023-04-14T10:31:29.380Z,8.60
2023-04-14T10:33:56.833Z,9.00
2023-04-14T10:36:29.104Z,9.10
2023-04-14T10:39:02.252Z,9.00
2023-04-14T10:41:47.987Z,9.20
2023-04-14T10:44:27.181Z,9.20
2023-04-14T10:47:05.365Z,9.70
2023-04-14T10:49:38.297Z,9.80
2023-04-14T10:52:12.695Z,10.10
2023-04-14T10:54:53.765Z,10.00
2023-04-14T10:57:25.615Z,10.20
2023-04-14T10:59:58.745Z,10.10
2023-04-14T11:02:26.302Z,10.00
2023-04-14T11:05:11.627Z,10.10
2023-04-14T11:07:46.082Z,10.10
2023-04-14T11:10:22.728Z,10.40
2023-04-14T11:13:13.237Z,10.20
2023-04-14T11:15:50.872Z,10.10
2023-04-14T11:18:37.485Z,10.00
2023-04-14T11:21:07.249Z,9.70
2023-04-14T11:23:36.352Z,8.50
2023-04-14T11:26:06.786Z,7.80
2023-04-14T11:28:36.131Z,7.70
2023-04-14T11:31:05.416Z,7.80
2023-04-14T11:33:34.630Z,8.20
2023-04-14T11:36:03.911Z,8.50
2023-04-14T11:38:32.046Z,8.40
2023-04-14T11:41:01.209Z,8.40
2023-04-14T11:43:31.785Z,8.60
2023-04-14T11:46:03.306Z,9.20
2023-04-14T11:48:30.785Z,9.00
2023-04-14T11:51:03.415Z,9.10
2023-04-14T11:53:31.315Z,9.30
2023-04-14T11:56:00.484Z,9.70
2023-04-14T11:58:28.942Z,9.60
2023-04-14T12:00:59.800Z,9.50
2023-04-14T12:06:16.073Z,9.20
2023-04-14T12:08:43.854Z,9.40
2023-04-14T12:11:14.831Z,9.70
2023-04-14T12:13:43.906Z,10.00
2023-04-14T12:16:15.286Z,10.10
2023-04-14T12:18:45.859Z,10.00
2023-04-14T12:21:18.504Z,10.20
2023-04-14T12:23:50.589Z,10.00
2023-04-14T12:26:19.606Z,10.00
2023-04-14T12:28:55.948Z,10.10
2023-04-14T12:31:30.128Z,9.90
2023-04-14T12:36:45.286Z,10.20
2023-04-14T12:39:15.748Z,10.00
2023-04-14T12:41:43.114Z,10.40
2023-04-14T12:44:20.909Z,10.40
2023-04-14T12:46:50.135Z,10.10
2023-04-14T12:49:38.245Z,10.10
2023-04-14T12:52:07.972Z,10.10
2023-04-14T12:54:49.133Z,10.20
2023-04-14T12:57:16.333Z,10.30
2023-04-14T12:59:43.699Z,10.40
2023-04-14T13:02:11.068Z,10.10
2023-04-14T13:04:38.723Z,10.00
2023-04-14T13:07:05.994Z,10.30
2023-04-14T13:09:33.258Z,10.60
2023-04-14T13:12:00.516Z,10.50
2023-04-14T13:14:27.778Z,10.90
2023-04-14T13:16:56.135Z,10.80
2023-04-14T13:19:23.528Z,10.50
2023-04-14T13:21:50.998Z,10.30
2023-04-14T13:24:18.279Z,10.40
2023-04-14T13:26:46.182Z,10.50
2023-04-14T13:29:13.464Z,10.50
2023-04-14T13:31:41.176Z,10.60
2023-04-14T13:34:08.549Z,10.40
2023-04-14T13:36:36.037Z,10.40
2023-04-14T13:39:04.250Z,10.30
2023-04-14T13:41:31.735Z,10.40
2023-04-14T13:43:59.004Z,10.40
2023-04-14T13:46:26.311Z,10.60
2023-04-14T13:48:54.698Z,10.50
2023-04-14T13:51:23.597Z,10.50
2023-04-14T13:53:51.090Z,10.40
2023-04-14T13:56:22.564Z,10.50
2023-04-14T13:58:49.799Z,10.60
2023-04-14T14:01:17.057Z,10.80
2023-04-14T14:03:45.610Z,10.80
2023-04-14T14:06:14.182Z,10.80
2023-04-14T14:08:42.479Z,11.10
2023-04-14T14:11:10.748Z,11.20
2023-04-14T14:13:38.962Z,11.40
2023-04-14T14:16:08.056Z,11.70
2023-04-14T14:18:37.316Z,11.50
2023-04-14T14:21:05.030Z,11.60
2023-04-14T14:23:32.498Z,11.40
2023-04-14T14:26:00.789Z,11.60
2023-04-14T14:28:28.129Z,11.80
2023-04-14T14:30:56.060Z,11.50
2023-04-14T14:33:23.297Z,11.30
2023-04-14T14:35:50.933Z,11.10
2023-04-14T14:38:18.212Z,11.10
2023-04-14T14:40:45.447Z,11.10
2023-04-14T14:43:12.712Z,11.30
2023-04-14T14:45:40.015Z,11.10
2023-04-14T14:48:08.829Z,11.20
2023-04-14T14:50:36.197Z,11.50
2023-04-14T14:53:03.517Z,11.70
2023-04-14T14:55:30.752Z,11.10
2023-04-14T14:57:58.389Z,11.10
2023-04-14T15:00:25.834Z,11.20
2023-04-14T15:02:53.513Z,11.40
2023-04-14T15:05:21.101Z,11.90
2023-04-14T15:07:48.478Z,11.80
2023-04-14T15:10:15.941Z,11.90
2023-04-14T15:12:44.368Z,11.80
2023-04-14T15:15:11.998Z,11.70
2023-04-14T15:17:39.323Z,11.50
2023-04-14T15:20:07.129Z,11.80
2023-04-14T15:22:35.931Z,11.90
2023-04-14T15:25:03.290Z,12.10
2023-04-14T15:27:30.587Z,12.20
2023-04-14T15:29:57.897Z,12.30
2023-04-14T15:32:26.794Z,12.20
2023-04-14T15:34:55.125Z,12.40
2023-04-14T15:37:22.442Z,12.40
2023-04-14T15:39:50.267Z,12.50
2023-04-14T15:42:17.555Z,12.50
2023-04-14T15:44:44.894Z,12.40
2023-04-14T15:47:12.254Z,12.50
2023-04-14T15:49:39.469Z,12.50
2023-04-14T15:52:06.861Z,12.40
2023-04-14T15:54:34.188Z,12.10
2023-04-14T15:57:02.407Z,11.30
2023-04-14T15:59:30.347Z,11.00
2023-04-14T16:01:58.000Z,11.10
2023-04-14T16:04:25.652Z,11.20
2023-04-14T16:06:54.671Z,11.20
2023-04-14T16:09:21.992Z,11.00
2023-04-14T16:11:49.492Z,10.80
2023-04-14T16:14:16.734Z,10.70
2023-04-14T16:16:47.024Z,10.60
2023-04-14T16:19:16.156Z,10.60
2023-04-14T16:21:43.507Z,10.80
2023-04-14T16:24:11.104Z,10.60
2023-04-14T16:26:38.494Z,10.40
2023-04-14T16:29:05.964Z,10.40
2023-04-14T16:31:33.326Z,10.60
2023-04-14T16:34:01.032Z,10.70
2023-04-14T16:36:29.098Z,10.70
2023-04-14T16:38:56.541Z,10.60
2023-04-14T16:41:23.821Z,10.60
2023-04-14T16:43:51.514Z,10.50
2023-04-14T16:46:18.819Z,10.60
2023-04-14T16:48:46.068Z,10.60
2023-04-14T16:51:13.534Z,10.50
2023-04-14T16:53:40.821Z,10.40
2023-04-14T16:56:09.265Z,10.20
2023-04-14T16:58:38.042Z,10.00
2023-04-14T17:01:07.313Z,10.00
2023-04-14T17:03:34.782Z,10.00
2023-04-14T17:06:02.528Z,9.90
2023-04-14T17:08:29.883Z,9.90
2023-04-14T17:10:57.283Z,9.80
2023-04-14T17:13:24.479Z,9.70
2023-04-14T17:15:58.957Z,9.50
2023-04-14T17:18:35.375Z,9.60
2023-04-14T17:21:02.923Z,9.50
2023-04-14T17:23:30.138Z,9.30
2023-04-14T17:25:59.737Z,9.30
2023-04-14T17:28:27.551Z,9.40
2023-04-14T17:30:55.621Z,9.40
2023-04-14T17:33:27.254Z,9.50
2023-04-14T17:35:55.569Z,9.40
2023-04-14T17:38:23.410Z,9.40
2023-04-14T17:40:51.851Z,9.40
2023-04-14T17:43:19.154Z,9.30
2023-04-14T17:45:50.313Z,9.10
2023-04-14T17:48:18.052Z,9.10
2023-04-14T17:50:46.429Z,9.00
2023-04-14T17:53:15.516Z,8.90
2023-04-14T17:55:43.666Z,8.90
2023-04-14T17:58:11.001Z,8.90
2023-04-14T18:00:39.223Z,8.90
2023-04-14T18:03:06.659Z,8.80
2023-04-14T18:05:34.018Z,8.80
2023-04-14T18:08:01.479Z,8.80
2023-04-14T18:10:28.760Z,8.90
2023-04-14T18:12:56.493Z,8.90
2023-04-14T18:15:23.878Z,8.80
2023-04-14T18:17:51.367Z,8.80
2023-04-14T18:20:24.672Z,8.80
2023-04-14T18:22:54.256Z,8.80
2023-04-14T18:25:21.714Z,8.80
2023-04-14T18:30:19.364Z,8.80
2023-04-14T18:32:46.729Z,8.70
2023-04-14T18:35:15.724Z,8.70
2023-04-14T18:37:43.318Z,8.60
2023-04-14T18:40:10.753Z,8.60
2023-04-14T18:42:38.936Z,8.60
2023-04-14T18:45:06.826Z,8.60
2023-04-14T18:47:34.264Z,8.70
2023-04-14T18:50:01.512Z,8.70
2023-04-14T18:52:28.724Z,8.70
2023-04-14T18:54:56.196Z,8.70
2023-04-14T18:57:24.394Z,8.70
2023-04-14T18:59:51.626Z,8.80
2023-04-14T19:02:19.632Z,8.70
2023-04-14T19:04:47.046Z,8.70
2023-04-14T19:07:14.308Z,8.70
2023-04-14T19:09:41.664Z,8.80
2023-04-14T19:12:21.437Z,8.70
2023-04-14T19:14:54.716Z,8.70
2023-04-14T19:17:22.155Z,8.60
2023-04-14T19:19:50.302Z,8.50
2023-04-14T19:22:17.604Z,8.40
2023-04-14T19:24:44.990Z,8.40
2023-04-14T19:27:12.175Z,8.40
2023-04-14T19:29:39.707Z,8.30
2023-04-14T19:32:06.954Z,8.10
2023-04-14T19:34:34.445Z,8.00
2023-04-14T19:37:03.899Z,7.90
2023-04-14T19:39:31.374Z,7.80
2023-04-14T19:41:58.695Z,7.80
2023-04-14T19:44:26.007Z,7.90
2023-04-14T19:46:53.507Z,7.90
2023-04-14T19:49:20.852Z,7.90
2023-04-14T19:51:49.753Z,7.90
2023-04-14T19:54:17.112Z,7.90
2023-04-14T19:56:45.067Z,7.90
2023-04-14T19:59:12.330Z,7.80
2023-04-14T20:01:40.949Z,7.70
2023-04-14T20:04:12.453Z,7.50
2023-04-14T20:06:41.335Z,7.50
2023-04-14T20:09:09.199Z,7.40
2023-04-14T20:11:36.409Z,7.50
2023-04-14T20:14:03.820Z,7.50
2023-04-14T20:16:31.272Z,7.70
2023-04-14T20:18:58.575Z,7.80
2023-04-14T20:21:25.921Z,7.80
2023-04-14T20:23:53.166Z,7.90
2023-04-14T20:26:20.677Z,7.90
2023-04-14T20:28:47.919Z,7.90
2023-04-14T20:31:15.711Z,8.00
2023-04-14T20:33:43.082Z,7.90
2023-04-14T20:36:10.361Z,7.90
2023-04-14T20:38:37.954Z,7.80
2023-04-14T20:41:05.190Z,7.70
2023-04-14T20:43:35.821Z,7.60
2023-04-14T20:46:04.133Z,7.50
2023-04-14T20:48:32.289Z,7.50
2023-04-14T20:51:00.613Z,7.50
2023-04-14T20:53:30.027Z,7.50
2023-04-14T20:55:57.446Z,7.40
2023-04-14T20:58:24.824Z,7.50
